LexMAWeather

Lexington, Massachusetts, USA

38°F
11/22/2017 10:29pm 
  • Lexington Conditions: Mostly cloudy
  • Temperature: 38.1°F / 3.4°CColder 0.7°F than last hour.
  • Dew Point: 33.8°FDecreased 1.3°Fsince last hour.
  • Humidity: 84%Decreased 2.0% since last hour.
  • Wind: NNW 3 mph, gust: 8 mph
  • Barometer: 29.87 in Steady
  • Visibility: 10 miles
  • Rain Today: 0.71 in
  •   

Nearby Reports - Official Weather Stations - Current Conditions

Data from the National Weather Service

KBED - Bedford, Massachusetts, USA


Distance from station: WNW 4mi, 6km

Updated Wed, Nov 22, 2017 9:56pm EST

Mostly cloudy

Mostly cloudy

Wind from NW

Wind:

NW 12 mph , 19 km/h

Temperature: 39°F (4°C)

Wind Chill: 32°F (0°C)

Dew Point: 30°F (-1°C)

Humidity: 70%

Barometer: 29.89 in (1012.2 hPa)

Clouds: Mostly cloudy

Visibility: 10 miles (16 km)

Cloud details: Mostly cloudy 4000 ft


2017/11/23 02:56 KBED 230256Z 32010KT 10SM BKN040 04/M01 A2989 RMK AO2 SLP136 T00391011 51009

KBOS - Boston, Massachusetts, USA


Distance from station: ESE 12mi, 20km

Updated Wed, Nov 22, 2017 9:54pm EST

Partly cloudy

Partly cloudy

Wind from NW

Wind:

NW 16 mph , 26 km/h,
Gust: 24 mph , 39 km/h

Temperature: 39°F (4°C)

Wind Chill: 30°F (-1°C)

Dew Point: 30°F (-1°C)

Humidity: 70%

Barometer: 29.89 in (1012.2 hPa)

Clouds: Partly cloudy

Visibility: 10 miles (16 km)

Cloud details: Partly cloudy 3600 ft
Partly cloudy 9000 ft


2017/11/23 02:54 KBOS 230254Z 31014G21KT 10SM SCT036 SCT090 04/M01 A2989 RMK AO2 SLP121 T00391011 51014

KOWD - Norwood, Massachusetts, USA


Distance from station: SSE 18mi, 29km

Updated Wed, Nov 22, 2017 9:53pm EST

Overcast

Overcast

Wind from NW

Wind:

NW 10 mph , 17 km/h

Temperature: 41°F (5°C)

Wind Chill: 35°F (2°C)

Dew Point: 34°F (1°C)

Humidity: 76%

Barometer: 29.90 in (1012.5 hPa)

Clouds: Overcast

Visibility: 10 miles (16 km)

Cloud details: Overcast 4000 ft


2017/11/23 02:53 KOWD 230253Z AUTO 31009KT 10SM OVC040 05/01 A2990 RMK AO2 SLP126 60000 T00500006 51014

KBVY - Beverly, Massachusetts, USA


Distance from station: ENE 19mi, 31km

Updated Wed, Nov 22, 2017 9:53pm EST

Clear

Clear

Wind from NW

Wind:

NW 13 mph , 20 km/h

Temperature: 37°F (3°C)

Wind Chill: 29°F (-2°C)

Dew Point: 28°F (-2°C)

Humidity: 70%

Barometer: 29.88 in (1011.9 hPa)

Clouds: Clear

Visibility: 10 miles (16 km)


2017/11/23 02:53 KBVY 230253Z AUTO 31011KT 10SM CLR 03/M02 A2988 RMK AO2 SLP113 T00331017 51015

KLWM - Lawrence, Massachusetts, USA


Distance from station: NNE 20mi, 32km

Updated Wed, Nov 22, 2017 9:54pm EST

Few Clouds

Few Clouds

Wind from NW

Wind:

NW 9 mph , 15 km/h,
Gust: 22 mph , 35 km/h

Temperature: 39°F (4°C)

Wind Chill: 33°F (1°C)

Dew Point: 27°F (-3°C)

Humidity: 61%

Barometer: 29.91 in (1012.9 hPa)

Clouds: Few Clouds

Visibility: 10 miles (16 km)

Cloud details: Few Clouds 3700 ft


2017/11/23 02:54 KLWM 230254Z 31008G19KT 10SM FEW037 04/M03 A2991 RMK AO2 SLP130 T00441028 51014

KFIT - Fitchburg, Massachusetts, USA


Distance from station: WNW 27mi, 44km

Updated Wed, Nov 22, 2017 9:52pm EST

Overcast

Overcast

Wind from NNW

Wind:

NNW 13 mph , 20 km/h

Temperature: 41°F (5°C)

Wind Chill: 34°F (1°C)

Dew Point: 30°F (-1°C)

Humidity: 66%

Barometer: 29.91 in (1012.9 hPa)

Clouds: Overcast

Visibility: 10 miles (16 km)

Cloud details: Overcast 3500 ft


2017/11/23 02:52 KFIT 230252Z AUTO 33011KT 10SM OVC035 05/M01 A2991 RMK AO2 SLP133 T00501011 53008

KASH - Nashua/Boire Fld, New Hampshire, USA


Distance from station: NNW 28mi, 44km

Updated Wed, Nov 22, 2017 9:56pm EST

Overcast

Overcast

Wind from NW

Wind:

NW 21 mph , 33 km/h,
Gust: 31 mph , 50 km/h

Temperature: 37°F (3°C)

Wind Chill: 26°F (-3°C)

Dew Point: 27°F (-3°C)

Humidity: 65%

Barometer: 29.91 in (1012.9 hPa)

Clouds: Overcast

Visibility: 10 miles (16 km)

Cloud details: Overcast 3900 ft


2017/11/23 02:56 KASH 230256Z AUTO 32018G27KT 10SM OVC039 03/M03 A2991 RMK AO2 PK WND 31027/0253 SLP141 T00331028 51009

KORH - Worcester, Massachusetts, USA


Distance from station: WSW 34mi, 55km

Updated Wed, Nov 22, 2017 10:18pm EST

Overcast

Overcast

Wind from NW

Wind:

NW 15 mph , 24 km/h,
Gust: 25 mph , 41 km/h

Temperature: 34°F (1°C)

Wind Chill: 24°F (-4°C)

Dew Point: 27°F (-3°C)

Humidity: 75%

Barometer: 29.90 in (1012.5 hPa)

Clouds: Overcast

Visibility: 10 miles (16 km)

Cloud details: Partly cloudy 2500 ft
Overcast 3000 ft


2017/11/23 03:18 KORH 230318Z AUTO 32013G22KT 10SM SCT025 OVC030 01/M03 A2990 RMK AO2 UPB09E17SNB08E09B17E18 P0000 T00111028

KMHT - Manchester, New Hampshire, USA


Distance from station: NNW 35mi, 57km

Updated Wed, Nov 22, 2017 9:53pm EST

Partly cloudy

Partly cloudy

Wind from NW

Wind:

NW 17 mph , 28 km/h,
Gust: 29 mph , 46 km/h

Temperature: 37°F (3°C)

Wind Chill: 27°F (-3°C)

Dew Point: 25°F (-4°C)

Humidity: 60%

Barometer: 29.89 in (1012.2 hPa)

Clouds: Partly cloudy

Visibility: 10 miles (16 km)

Cloud details: Partly cloudy 4000 ft


2017/11/23 02:53 KMHT 230253Z 32015G25KT 10SM SCT040 03/M04 A2989 RMK AO2 PK WND 33026/0232 SLP138 T00331044 51007

KGHG - Marshfield, Massachusetts, USA


Distance from station: SE 38mi, 60km

Updated Wed, Nov 22, 2017 10:15pm EST

Clear

Clear

Wind from varies

Wind:

varies 7 mph , 11 km/h,
Gust: 24 mph , 39 km/h

Temperature: 39°F (4°C)

Wind Chill: 34°F (1°C)

Dew Point: 30°F (-1°C)

Humidity: 70%

Barometer: 29.88 in (1011.9 hPa)

Clouds: Clear

Visibility: 10 miles (16 km)


2017/11/23 03:15 KGHG 230315Z AUTO VRB06G21KT 10SM CLR 04/M01 A2988 RMK AO2

KSFZ - Pawtucket, Rhode Island, USA


Distance from station: SSW 39mi, 62km

Updated Wed, Nov 22, 2017 9:56pm EST

Clear

Clear

Wind from WNW

Wind:

WNW 9 mph , 15 km/h,
Gust: 17 mph , 28 km/h

Temperature: 37°F (3°C)

Wind Chill: 30°F (-1°C)

Dew Point: 28°F (-2°C)

Humidity: 70%

Barometer: 29.90 in (1012.5 hPa)

Clouds: Clear

Visibility: 10 miles (16 km)


2017/11/23 02:56 KSFZ 230256Z AUTO 30008G15KT 10SM CLR 03/M02 A2990 RMK AO2 SLP075 T00281022 51013

KTAN - Taunton, Massachusetts, USA


Distance from station: SSE 40mi, 65km

Updated Wed, Nov 22, 2017 9:52pm EST

Mostly cloudy

Mostly cloudy

Wind from WNW

Wind:

WNW 6 mph , 9 km/h

Temperature: 39°F (4°C)

Wind Chill: 35°F (2°C)

Dew Point: 30°F (-1°C)

Humidity: 70%

Barometer: 29.90 in (1012.5 hPa)

Clouds: Mostly cloudy

Visibility: 10 miles (16 km)

Cloud details: Mostly cloudy 3500 ft


2017/11/23 02:52 KTAN 230252Z AUTO 30005KT 10SM BKN035 04/M01 A2990 RMK AO2 SLP125 T00391006 $

KPYM - Plymouth, Massachusetts, USA


Distance from station: SE 44mi, 72km

Updated Wed, Nov 22, 2017 9:52pm EST

Mostly cloudy

Mostly cloudy

Wind from NW

Wind:

NW 9 mph , 15 km/h

Temperature: 41°F (5°C)

Wind Chill: 35°F (2°C)

Dew Point: 34°F (1°C)

Humidity: 76%

Barometer: 29.89 in (1012.2 hPa)

Clouds: Mostly cloudy

Visibility: 10 miles (16 km)

Cloud details: Mostly cloudy 2900 ft


2017/11/23 02:52 KPYM 230252Z AUTO 31008KT 10SM BKN029 05/01 A2989 RMK AO2 SLP122 T00500006 51023

KAFN - Jaffrey, New Hampshire, USA


Distance from station: WNW 46mi, 74km

Updated Wed, Nov 22, 2017 9:52pm EST

Overcast

Overcast

Wind from NNW

Wind:

NNW 12 mph , 19 km/h,
Gust: 22 mph , 35 km/h

Temperature: 36°F (2°C)

Wind Chill: 28°F (-2°C)

Dew Point: 27°F (-3°C)

Humidity: 70%

Barometer: 29.89 in (1012.2 hPa)

Clouds: Overcast

Visibility: 10 miles (16 km)

Cloud details: Overcast 3100 ft


2017/11/23 02:52 KAFN 230252Z AUTO 33010G19KT 310V020 10SM OVC031 02/M03 A2989 RMK AO2 SLP137 T00221033 50003 TSNO

KPSM - Portsmouth/Pease, New Hampshire, USA


Distance from station: NNE 48mi, 78km

Updated Wed, Nov 22, 2017 9:56pm EST

Few Clouds

Few Clouds

Wind from WNW

Wind:

WNW 14 mph , 22 km/h

Temperature: 37°F (3°C)

Wind Chill: 28°F (-2°C)

Dew Point: 27°F (-3°C)

Humidity: 65%

Barometer: 29.85 in (1010.8 hPa)

Clouds: Few Clouds

Visibility: 10 miles (16 km)

Cloud details: Few Clouds 4000 ft


2017/11/23 02:56 KPSM 230256Z 30012KT 10SM FEW040 03/M03 A2985 RMK AO2A SLP111 T00271026 52012 CHINO RWY16 $

KPVD - Providence/Green, Rhode Island, USA


Distance from station: S 51mi, 82km

Updated Wed, Nov 22, 2017 9:51pm EST

Few Clouds

Few Clouds

Wind from NW

Wind:

NW 8 mph , 13 km/h,
Gust: 20 mph , 31 km/h

Temperature: 39°F (4°C)

Wind Chill: 33°F (1°C)

Dew Point: 28°F (-2°C)

Humidity: 65%

Barometer: 29.93 in (1013.5 hPa)

Clouds: Few Clouds

Visibility: 10 miles (16 km)

Cloud details: Few Clouds 3000 ft
Few Clouds 5000 ft


2017/11/23 02:51 KPVD 230251Z 31007G17KT 10SM FEW030 FEW050 04/M02 A2993 RMK AO2 SLP136 T00441017 51019 $

KCON - Concord, New Hampshire, USA


Distance from station: NNW 54mi, 87km

Updated Wed, Nov 22, 2017 9:51pm EST

Overcast

Overcast

Wind from WNW

Wind:

WNW 15 mph , 24 km/h,
Gust: 25 mph , 41 km/h

Temperature: 36°F (2°C)

Wind Chill: 27°F (-3°C)

Dew Point: 27°F (-3°C)

Humidity: 70%

Barometer: 29.89 in (1012.2 hPa)

Clouds: Overcast

Visibility: 10 miles (16 km)

Cloud details: Mostly cloudy 3200 ft
Overcast 4000 ft


2017/11/23 02:51 KCON 230251Z AUTO 30013G22KT 10SM BKN032 OVC040 02/M03 A2989 RMK AO2 SLP126 T00221033 50004

KEWB - New Bedford, Massachusetts, USA


Distance from station: SSE 54mi, 87km

Updated Wed, Nov 22, 2017 9:53pm EST

Clear

Clear

Wind from WNW

Wind:

WNW 12 mph , 19 km/h,
Gust: 17 mph , 28 km/h

Temperature: 37°F (3°C)

Wind Chill: 29°F (-2°C)

Dew Point: 30°F (-1°C)

Humidity: 75%

Barometer: 29.89 in (1012.2 hPa)

Clouds: Clear

Visibility: 10 miles (16 km)


2017/11/23 02:53 KEWB 230253Z 30010G15KT 10SM CLR 03/M01 A2989 RMK AO2 SLP122 T00331011 51022

KMWN - Mount Washington, New Hampshire, USA


Distance from station: N 126mi, 203km

Updated Wed, Nov 22, 2017 9:53pm EST

Light snow showers, Freezing fog, Blowing snow, Overcast

Light snow showers, Freezing fog, Blowing snow, Overcast

Wind from WNW

Wind:

WNW 58 mph , 93 km/h,
Gust: 66 mph , 106 km/h

Temperature: 10°F (-12°C)

Wind Chill: -18°F (-28°C)

Dew Point: 10°F (-12°C)

Humidity: 100%

Summary: Light snow showers, Freezing fog, Blowing snow

Clouds: Overcast

Visibility: 1/16 mile (0 km)

Cloud details: Overcast 0 ft


2017/11/23 02:53 KMWN 230253Z 30050G57KT 1/16SM -SHSN FZFG BLSN VV000 M12/M12 RMK SHSNB15 VRY LGT ICG